Time;durP1;ratioP1;P1;durP2;ratioP2;P2;SDS_P1;SDS_P2;PMS_P1;PMS_P2;Temp;Humidity;BMP_temperature;BMP_pressure;BME280_temperature;BME280_humidity;BME280_pressure;Samples;Min_cycle;Max_cycle;Signal;HPM_P1;HPM_P2
2023/07/26 00:00:59;;;;;;;11.40;5.80;;;;;;;12.05;71.01;98564.51;219865;1255;140032;-67
2023/07/26 00:06:07;;;;;;;5.70;4.80;;;;;;;12.12;71.17;98567.20;219104;1259;139962;-68
2023/07/26 00:11:12;;;;;;;14.10;4.50;;;;;;;12.10;70.88;98575.08;219561;1257;140883;-68
2023/07/26 00:16:16;;;;;;;5.40;4.60;;;;;;;11.99;70.80;98575.69;218863;1256;140304;-67
2023/07/26 00:21:20;;;;;;;10.90;5.10;;;;;;;11.84;70.81;98585.78;218058;1256;142015;-67
2023/07/26 00:26:25;;;;;;;9.00;5.10;;;;;;;11.82;71.53;98592.24;218103;1256;141104;-68
2023/07/26 00:31:31;;;;;;;7.20;4.60;;;;;;;11.89;72.10;98587.80;218387;1256;139899;-70
2023/07/26 00:36:35;;;;;;;4.90;4.40;;;;;;;11.93;72.20;98595.89;217986;1256;140144;-70
2023/07/26 00:41:40;;;;;;;4.60;4.20;;;;;;;11.87;72.22;98603.52;218519;1256;140048;-67
2023/07/26 00:46:45;;;;;;;8.10;4.80;;;;;;;11.81;72.71;98603.61;218442;1254;140406;-68
2023/07/26 00:51:49;;;;;;;4.50;4.00;;;;;;;11.84;73.20;98598.23;218709;1254;140507;-66
2023/07/26 00:56:54;;;;;;;5.30;3.60;;;;;;;11.91;73.63;98593.58;218850;1256;140029;-67
2023/07/26 01:01:59;;;;;;;5.00;4.30;;;;;;;11.98;73.84;98599.78;219051;1254;141516;-68
2023/07/26 01:07:13;;;;;;;6.30;4.50;;;;;;;12.00;73.74;98607.31;217941;1257;140149;-67
2023/07/26 01:12:26;;;;;;;4.20;3.70;;;;;;;11.99;73.58;98610.63;218864;1256;140558;-67
2023/07/26 01:17:31;;;;;;;5.60;5.10;;;;;;;12.02;73.91;98595.17;219206;1256;139933;-67
2023/07/26 01:22:36;;;;;;;6.00;4.00;;;;;;;12.10;73.99;98595.86;217828;1257;140965;-67
2023/07/26 01:27:40;;;;;;;5.70;5.00;;;;;;;12.12;74.02;98600.77;219691;1257;141269;-68
2023/07/26 01:32:51;;;;;;;9.60;5.40;;;;;;;12.21;74.48;98615.86;218365;1259;141671;-67
2023/07/26 01:37:57;;;;;;;8.50;5.00;;;;;;;12.34;74.45;98599.13;219764;1256;140390;-68
2023/07/26 01:43:01;;;;;;;6.70;4.70;;;;;;;12.42;74.29;98583.28;218439;1256;139915;-68
2023/07/26 01:48:06;;;;;;;8.90;5.70;;;;;;;12.45;74.13;98604.98;219291;1256;140259;-67
2023/07/26 01:53:10;;;;;;;5.50;3.90;;;;;;;12.48;74.40;98614.95;220691;1256;140049;-68
2023/07/26 01:58:15;;;;;;;8.30;4.60;;;;;;;12.52;74.28;98616.75;219141;1257;140531;-67
2023/07/26 02:03:20;;;;;;;10.70;5.10;;;;;;;12.55;74.52;98620.89;218294;1254;140239;-67
2023/07/26 02:08:24;;;;;;;7.60;3.90;;;;;;;12.64;74.73;98613.48;220102;1254;140503;-68
2023/07/26 02:13:27;;;;;;;5.60;4.90;;;;;;;12.75;74.88;98613.64;219198;1254;139956;-68
2023/07/26 02:18:32;;;;;;;4.50;4.10;;;;;;;12.79;74.75;98611.39;218882;1254;140995;-67
2023/07/26 02:23:37;;;;;;;7.30;6.60;;;;;;;12.78;74.94;98609.30;219668;1254;140807;-67
2023/07/26 02:28:43;;;;;;;8.50;5.60;;;;;;;12.88;75.14;98603.98;218504;1254;141026;-66
2023/07/26 02:33:47;;;;;;;4.60;4.30;;;;;;;12.98;75.48;98597.12;219554;1254;140095;-67
2023/07/26 02:38:52;;;;;;;8.30;6.30;;;;;;;13.08;75.51;98605.52;218290;1257;139989;-66
2023/07/26 02:43:57;;;;;;;15.70;5.10;;;;;;;13.17;75.86;98621.04;218459;1257;139924;-66
2023/07/26 02:49:01;;;;;;;20.70;5.40;;;;;;;13.20;75.86;98624.34;219158;1258;140116;-66
2023/07/26 02:54:05;;;;;;;4.30;3.40;;;;;;;13.25;75.79;98633.95;218200;1254;140261;-66
2023/07/26 02:59:11;;;;;;;4.90;4.50;;;;;;;13.21;76.05;98646.39;218086;1254;140525;-66
2023/07/26 03:04:16;;;;;;;5.10;4.60;;;;;;;13.15;76.30;98648.61;218315;1256;139871;-67
2023/07/26 03:09:20;;;;;;;8.10;5.30;;;;;;;13.09;76.65;98651.38;218491;1254;140500;-66
2023/07/26 03:14:24;;;;;;;5.60;4.90;;;;;;;13.13;77.01;98645.47;218975;1254;140848;-66
2023/07/26 03:19:29;;;;;;;5.60;5.10;;;;;;;13.20;77.04;98649.13;219210;1253;139965;-67
2023/07/26 03:24:33;;;;;;;6.00;4.70;;;;;;;13.25;77.36;98659.48;218221;1254;140457;-66
2023/07/26 03:29:37;;;;;;;7.80;5.70;;;;;;;13.32;77.41;98655.80;219597;1254;140541;-68
2023/07/26 03:34:41;;;;;;;9.60;4.80;;;;;;;13.37;77.57;98655.98;219667;1256;140142;-66
2023/07/26 03:39:45;;;;;;;6.50;5.80;;;;;;;13.45;77.70;98653.08;219399;1256;140514;-66
2023/07/26 03:44:50;;;;;;;6.10;5.00;;;;;;;13.57;77.84;98665.34;219410;1258;140719;-67
2023/07/26 03:49:55;;;;;;;23.30;7.30;;;;;;;13.69;77.80;98671.95;220411;1255;140528;-67
2023/07/26 03:54:59;;;;;;;5.30;4.80;;;;;;;13.82;77.76;98672.48;219799;1255;139933;-66
2023/07/26 04:00:04;;;;;;;7.00;5.50;;;;;;;13.99;77.73;98674.79;218031;1254;139724;-70
2023/07/26 04:05:08;;;;;;;8.80;5.40;;;;;;;14.12;77.67;98684.72;219461;1255;140523;-71
2023/07/26 04:10:12;;;;;;;14.60;5.20;;;;;;;14.22;77.82;98689.77;218095;1257;140072;-67
2023/07/26 04:15:17;;;;;;;7.10;5.70;;;;;;;14.31;77.80;98687.82;218387;1257;161510;-66
2023/07/26 04:20:20;;;;;;;13.40;5.40;;;;;;;14.36;77.51;98692.11;218532;1259;139855;-66
2023/07/26 04:25:25;;;;;;;5.60;4.30;;;;;;;14.42;77.74;98702.08;217510;1257;141042;-67
2023/07/26 04:30:29;;;;;;;42.80;6.70;;;;;;;14.47;77.73;98703.96;217802;1259;140314;-66
2023/07/26 04:35:34;;;;;;;6.90;5.50;;;;;;;14.54;77.61;98709.80;218337;1256;140143;-70
2023/07/26 04:40:38;;;;;;;4.20;3.90;;;;;;;14.58;77.65;98721.50;218805;1257;140337;-68
2023/07/26 04:45:46;;;;;;;;;;;;;;;14.62;77.60;98730.90;217927;1257;141770;-65
2023/07/26 04:50:51;;;;;;;4.90;3.80;;;;;;;14.63;77.36;98744.98;217865;1256;126428;-67
2023/07/26 04:55:56;;;;;;;3.50;2.70;;;;;;;14.66;77.44;98755.96;218632;1256;140262;-71
2023/07/26 05:01:01;;;;;;;5.80;2.80;;;;;;;14.67;77.23;98765.06;218301;1257;140443;-71
2023/07/26 05:06:06;;;;;;;2.90;2.60;;;;;;;14.66;77.18;98773.34;218395;1257;140470;-71
2023/07/26 05:11:11;;;;;;;3.50;2.50;;;;;;;14.67;76.61;98774.23;218924;1256;143820;-71
2023/07/26 05:16:16;;;;;;;3.20;1.70;;;;;;;14.68;76.04;98787.61;218922;1257;141957;-72
2023/07/26 05:21:20;;;;;;;3.30;1.90;;;;;;;14.69;75.64;98785.09;218787;1257;140879;-71
2023/07/26 05:26:24;;;;;;;1.50;1.20;;;;;;;14.70;75.17;98785.94;219105;1256;142114;-71
2023/07/26 05:31:29;;;;;;;3.20;1.30;;;;;;;14.70;74.44;98792.33;220510;1256;140564;-72
2023/07/26 05:36:34;;;;;;;2.20;1.20;;;;;;;14.63;73.81;98794.71;220366;1256;139850;-71
2023/07/26 05:41:39;;;;;;;1.90;1.80;;;;;;;14.54;73.21;98804.84;220495;1256;140884;-71
2023/07/26 05:46:44;;;;;;;1.40;1.10;;;;;;;14.46;73.27;98803.40;220361;1256;139770;-71
2023/07/26 05:51:49;;;;;;;2.00;1.90;;;;;;;14.39;73.41;98815.66;220369;1257;140600;-70
2023/07/26 05:56:53;;;;;;;2.40;1.60;;;;;;;14.36;73.40;98823.63;219744;1257;140305;-68
2023/07/26 06:01:58;;;;;;;3.90;1.50;;;;;;;14.34;73.37;98830.52;220080;1257;139594;-69
2023/07/26 06:07:04;;;;;;;3.40;1.40;;;;;;;14.33;73.14;98828.59;218010;1259;140249;-68
2023/07/26 06:12:11;;;;;;;2.40;1.40;;;;;;;14.32;72.68;98822.97;218175;1260;139681;-68
2023/07/26 06:17:16;;;;;;;1.70;1.50;;;;;;;14.30;72.70;98822.93;219160;1255;140115;-70
2023/07/26 06:22:20;;;;;;;2.80;1.40;;;;;;;14.27;72.45;98823.44;217963;1257;139703;-67
2023/07/26 06:27:29;;;;;;;1.80;0.90;;;;;;;14.25;72.00;98825.55;219143;1256;140591;-69
2023/07/26 06:32:34;;;;;;;4.90;1.50;;;;;;;14.25;71.80;98833.10;218544;1255;140087;-68
2023/07/26 06:37:39;;;;;;;7.70;1.40;;;;;;;14.31;71.95;98843.84;219039;1258;142462;-68
2023/07/26 06:42:44;;;;;;;0.90;0.80;;;;;;;14.38;71.86;98855.23;218683;1257;140575;-71
2023/07/26 06:47:49;;;;;;;3.80;2.30;;;;;;;14.45;71.95;98868.08;217869;1257;140191;-67
2023/07/26 06:52:54;;;;;;;4.40;1.60;;;;;;;14.51;72.16;98870.39;218383;1257;140600;-67
2023/07/26 06:58:00;;;;;;;2.10;1.90;;;;;;;14.55;72.53;98873.33;218904;1257;140909;-68
2023/07/26 07:03:05;;;;;;;7.10;2.40;;;;;;;14.56;72.69;98881.63;218610;1257;139979;-66
2023/07/26 07:08:10;;;;;;;2.10;1.80;;;;;;;14.57;73.08;98892.40;218793;1257;140439;-67
2023/07/26 07:13:15;;;;;;;10.80;2.00;;;;;;;14.57;73.45;98900.92;218067;1257;139765;-67
2023/07/26 07:18:19;;;;;;;2.80;2.00;;;;;;;14.59;73.88;98902.63;219391;1259;141117;-68
2023/07/26 07:23:25;;;;;;;4.40;1.30;;;;;;;14.58;74.09;98908.27;219095;1257;140579;-67
2023/07/26 07:28:29;;;;;;;5.00;2.30;;;;;;;14.64;74.42;98909.61;219596;1258;139912;-67
2023/07/26 07:33:35;;;;;;;2.90;2.60;;;;;;;14.71;74.82;98914.73;220367;1257;139970;-67
2023/07/26 07:38:39;;;;;;;23.80;3.20;;;;;;;14.80;74.86;98915.05;220403;1257;139794;-67
2023/07/26 07:43:43;;;;;;;2.30;2.10;;;;;;;14.92;75.02;98926.54;220291;1257;140654;-65
2023/07/26 07:48:47;;;;;;;3.10;2.30;;;;;;;14.96;75.15;98936.43;220360;1257;139789;-67
2023/07/26 07:53:52;;;;;;;3.70;2.30;;;;;;;15.01;75.31;98937.65;219478;1258;140361;-67
2023/07/26 07:58:56;;;;;;;4.10;1.50;;;;;;;15.04;75.62;98938.80;218657;1257;140281;-66
2023/07/26 08:04:00;;;;;;;6.10;2.70;;;;;;;15.11;75.54;98952.48;219164;1257;140786;-71
2023/07/26 08:09:05;;;;;;;16.00;3.10;;;;;;;15.19;75.86;98957.20;217919;1259;140884;-71
2023/07/26 08:14:09;;;;;;;3.00;2.60;;;;;;;15.26;75.91;98958.95;218716;1259;140155;-65
2023/07/26 08:19:13;;;;;;;4.40;2.70;;;;;;;15.33;76.03;98963.65;218749;1259;142199;-64
2023/07/26 08:24:18;;;;;;;3.10;2.20;;;;;;;15.34;75.87;98965.52;218391;1255;140365;-66
2023/07/26 08:29:22;;;;;;;8.70;3.40;;;;;;;15.43;76.24;98967.10;217860;1260;140855;-66
2023/07/26 08:34:29;;;;;;;4.80;3.10;;;;;;;15.55;76.38;98968.01;219023;1258;140263;-66
2023/07/26 08:39:33;;;;;;;2.90;2.40;;;;;;;15.56;76.08;98968.23;218272;1259;140383;-66
2023/07/26 08:44:40;;;;;;;5.10;2.10;;;;;;;15.57;76.07;98972.46;219132;1258;139841;-65
2023/07/26 08:49:46;;;;;;;3.90;2.40;;;;;;;15.49;75.55;98975.91;218749;1258;141566;-66
2023/07/26 08:54:52;;;;;;;4.60;2.40;;;;;;;15.41;75.26;98974.31;218873;1259;140745;-67
2023/07/26 08:59:56;;;;;;;14.20;2.50;;;;;;;15.37;75.12;98993.15;218942;1257;140570;-66
2023/07/26 09:05:00;;;;;;;7.10;2.20;;;;;;;15.33;75.02;98989.59;218554;1254;144441;-66
2023/07/26 09:10:04;;;;;;;5.20;1.30;;;;;;;15.34;75.00;98982.00;219580;1256;141216;-66
2023/07/26 09:15:10;;;;;;;1.70;1.60;;;;;;;15.35;74.90;98989.52;218820;1260;140376;-66
2023/07/26 09:20:20;;;;;;;8.40;2.40;;;;;;;15.37;75.10;98999.10;220503;1256;139907;-66
2023/07/26 09:25:39;;;;;;;3.50;1.40;;;;;;;15.42;75.02;98999.49;218436;1258;140284;-66
2023/07/26 09:30:51;;;;;;;6.10;1.70;;;;;;;15.50;75.09;98998.34;220332;1257;141680;-67
2023/07/26 09:35:57;;;;;;;1.60;1.50;;;;;;;15.60;75.04;98994.77;220377;1258;140600;-66
2023/07/26 09:41:21;;;;;;;4.80;2.30;;;;;;;15.69;74.87;98993.85;220445;1258;140897;-67
2023/07/26 09:46:27;;;;;;;3.10;2.10;;;;;;;15.83;75.04;98995.00;217961;1260;140782;-68
2023/07/26 09:51:35;;;;;;;4.30;2.00;;;;;;;15.93;75.07;99000.08;219674;1257;140361;-68
2023/07/26 09:56:41;;;;;;;1.70;1.60;;;;;;;15.98;74.87;98999.05;219726;1257;140610;-69
2023/07/26 10:01:47;;;;;;;2.50;1.60;;;;;;;15.96;74.93;99004.35;220021;1257;140654;-68
2023/07/26 10:07:00;;;;;;;2.10;2.00;;;;;;;15.95;74.88;99010.48;218918;1260;139824;-68
2023/07/26 10:12:07;;;;;;;9.50;2.70;;;;;;;16.00;75.01;99014.30;218746;1258;140722;-68
2023/07/26 10:17:14;;;;;;;3.40;2.30;;;;;;;16.07;75.26;99010.67;219123;1255;208675;-68
2023/07/26 10:22:21;;;;;;;5.00;2.40;;;;;;;16.16;75.34;99013.14;218076;1259;224276;-68
2023/07/26 10:27:27;;;;;;;1.60;1.50;;;;;;;16.21;75.30;99018.60;218911;1254;139824;-68
2023/07/26 10:32:31;;;;;;;4.00;2.30;;;;;;;16.29;75.63;99020.21;218973;1254;140617;-69
2023/07/26 10:37:38;;;;;;;2.40;2.20;;;;;;;16.36;75.60;99025.30;217840;1258;140332;-67
2023/07/26 10:42:43;;;;;;;4.70;1.80;;;;;;;16.36;75.57;99035.62;218325;1254;141486;-66
2023/07/26 10:47:55;;;;;;;2.20;1.70;;;;;;;16.31;75.24;99031.70;218327;1254;141099;-65
2023/07/26 10:53:38;;;;;;;2.30;2.10;;;;;;;16.26;75.33;99030.25;219257;1254;140167;-70
2023/07/26 10:59:03;;;;;;;2.40;2.30;;;;;;;16.35;75.77;99035.48;219391;1254;139959;-66
2023/07/26 11:04:12;;;;;;;4.60;3.30;;;;;;;16.45;76.00;99029.21;218826;1257;140314;-67
2023/07/26 11:09:27;;;;;;;2.30;2.20;;;;;;;16.56;76.09;99024.57;219772;1258;140596;-65
2023/07/26 11:14:33;;;;;;;3.70;2.10;;;;;;;16.69;75.99;99028.52;217946;1260;139908;-68
2023/07/26 11:19:49;;;;;;;5.80;2.70;;;;;;;16.76;75.92;99030.09;219289;1254;140271;-66
2023/07/26 11:24:53;;;;;;;2.30;2.10;;;;;;;16.92;75.85;99029.56;219718;1256;222946;-66
2023/07/26 11:30:02;;;;;;;4.20;2.00;;;;;;;17.04;75.67;99031.37;220754;1256;140875;-66
2023/07/26 11:35:07;;;;;;;5.80;3.00;;;;;;;17.10;75.31;99042.27;220471;1256;141432;-65
2023/07/26 11:40:12;;;;;;;4.00;2.10;;;;;;;17.13;75.15;99047.91;219779;1256;140200;-66
2023/07/26 11:45:17;;;;;;;3.90;2.10;;;;;;;17.10;74.44;99053.25;218559;1257;139880;-64
2023/07/26 11:50:22;;;;;;;4.10;2.10;;;;;;;17.06;74.28;99051.16;218933;1256;231127;-63
2023/07/26 11:55:26;;;;;;;2.10;1.90;;;;;;;17.10;74.31;99061.98;219081;1256;140666;-65
2023/07/26 12:00:33;;;;;;;2.40;2.20;;;;;;;17.12;74.27;99064.56;218687;1254;139676;-63
2023/07/26 12:05:44;;;;;;;4.90;2.50;;;;;;;17.17;74.35;99065.45;217829;1258;140196;-68
2023/07/26 12:10:49;;;;;;;3.10;2.80;;;;;;;17.19;74.43;99068.48;218029;1257;139976;-65
2023/07/26 12:15:55;;;;;;;4.80;3.30;;;;;;;17.12;74.58;99076.02;217635;1257;141198;-68
2023/07/26 12:21:01;;;;;;;6.20;3.30;;;;;;;17.02;74.54;99077.55;217539;1257;139782;-66
2023/07/26 12:26:13;;;;;;;3.40;3.20;;;;;;;16.89;74.37;99083.34;217258;1260;514216;-68
2023/07/26 12:31:22;;;;;;;7.00;3.40;;;;;;;16.74;74.55;99091.21;217638;1260;140499;-64
2023/07/26 12:36:47;;;;;;;6.80;3.70;;;;;;;16.68;74.78;99090.00;217712;1256;141467;-66
2023/07/26 12:41:54;;;;;;;5.00;3.60;;;;;;;16.65;75.02;99090.73;219357;1257;140566;-65
2023/07/26 12:46:59;;;;;;;9.90;3.90;;;;;;;16.63;75.01;99089.33;217794;1256;140213;-65
2023/07/26 12:52:25;;;;;;;6.50;3.40;;;;;;;16.66;75.26;99090.50;218777;1257;141931;-65
2023/07/26 12:57:30;;;;;;;3.20;2.90;;;;;;;16.72;75.35;99096.02;218279;1260;140550;-65
2023/07/26 13:02:34;;;;;;;6.50;3.20;;;;;;;16.82;75.68;99102.17;217386;1260;140356;-64
2023/07/26 13:07:40;;;;;;;2.80;2.60;;;;;;;16.89;75.78;99104.28;219422;1257;140443;-69
2023/07/26 13:12:45;;;;;;;4.20;3.10;;;;;;;16.98;75.68;99111.59;218662;1256;142353;-67
2023/07/26 13:17:52;;;;;;;4.00;2.70;;;;;;;16.98;75.48;99116.33;219399;1255;141039;-66
2023/07/26 13:22:56;;;;;;;;;;;;;;;16.95;75.68;99120.41;220103;1256;141219;-67
2023/07/26 13:28:01;;;;;;;5.00;3.30;;;;;;;16.88;75.67;99120.50;221012;1256;126745;-66
2023/07/26 13:33:05;;;;;;;4.60;2.80;;;;;;;16.92;75.84;99129.29;220517;1257;140492;-66
2023/07/26 13:38:09;;;;;;;3.00;2.60;;;;;;;16.98;75.88;99133.29;220511;1256;140464;-66
2023/07/26 13:43:14;;;;;;;4.50;4.10;;;;;;;17.00;75.59;99133.69;220540;1256;140148;-67
2023/07/26 13:48:18;;;;;;;11.30;3.60;;;;;;;17.03;75.58;99135.76;218292;1256;139771;-67
2023/07/26 13:53:23;;;;;;;3.00;2.70;;;;;;;17.04;75.62;99138.98;218931;1256;140173;-65
2023/07/26 13:58:27;;;;;;;3.80;3.20;;;;;;;17.02;75.75;99139.95;218247;1260;140340;-66
2023/07/26 14:03:33;;;;;;;8.40;3.30;;;;;;;16.98;75.69;99145.83;217986;1257;139938;-69
2023/07/26 14:08:38;;;;;;;4.90;3.20;;;;;;;16.96;75.78;99143.27;218302;1256;140966;-66
2023/07/26 14:13:43;;;;;;;3.70;3.10;;;;;;;16.94;75.82;99139.42;218697;1256;162205;-67
2023/07/26 14:18:48;;;;;;;4.30;2.60;;;;;;;16.87;76.03;99143.14;218012;1257;140005;-68
2023/07/26 14:23:53;;;;;;;4.20;3.40;;;;;;;16.78;76.02;99148.53;218682;1256;141657;-68
2023/07/26 14:28:58;;;;;;;4.90;3.30;;;;;;;16.70;76.11;99150.52;217962;1259;140813;-68
2023/07/26 14:34:05;;;;;;;7.40;3.30;;;;;;;16.69;76.43;99157.42;217848;1257;140472;-68
2023/07/26 14:39:09;;;;;;;5.50;3.60;;;;;;;16.70;76.67;99157.14;218265;1256;140414;-64
2023/07/26 14:44:15;;;;;;;3.50;2.90;;;;;;;16.71;76.58;99161.06;218984;1255;141062;-69
2023/07/26 14:49:23;;;;;;;4.00;3.60;;;;;;;16.66;76.61;99157.40;219303;1256;139927;-69
2023/07/26 14:54:28;;;;;;;5.30;3.20;;;;;;;16.68;76.93;99159.55;218393;1256;139959;-68
2023/07/26 14:59:34;;;;;;;2.70;2.40;;;;;;;16.62;76.81;99152.54;218105;1254;139992;-66
2023/07/26 15:04:42;;;;;;;6.40;4.10;;;;;;;16.55;77.05;99149.86;218971;1256;140166;-64
2023/07/26 15:09:49;;;;;;;8.60;4.40;;;;;;;16.52;77.35;99149.63;219435;1255;140906;-66
2023/07/26 15:14:54;;;;;;;;;;;;;;;16.59;77.69;99148.67;220554;1256;140681;-66
2023/07/26 15:19:58;;;;;;;5.40;4.20;;;;;;;16.60;77.65;99146.09;220983;1256;127997;-70
2023/07/26 15:25:04;;;;;;;4.50;3.50;;;;;;;16.57;77.55;99151.83;218961;1259;140133;-69
2023/07/26 15:30:09;;;;;;;5.40;4.40;;;;;;;16.54;77.52;99147.88;219634;1255;140453;-73
2023/07/26 15:35:15;;;;;;;5.90;4.40;;;;;;;16.58;77.65;99145.90;219970;1256;140585;-71
2023/07/26 15:40:20;;;;;;;3.50;3.10;;;;;;;16.59;77.61;99139.27;219460;1257;140972;-75
2023/07/26 15:45:29;;;;;;;4.80;4.20;;;;;;;16.52;77.46;99137.15;218691;1256;142097;-68
2023/07/26 15:50:37;;;;;;;9.80;4.20;;;;;;;16.52;77.75;99134.19;218146;1259;140640;-66
2023/07/26 15:55:59;;;;;;;5.50;4.20;;;;;;;16.47;77.64;99124.40;218313;1256;140096;-67
2023/07/26 16:01:05;;;;;;;7.00;3.90;;;;;;;16.40;77.81;99121.91;218108;1256;140354;-68
2023/07/26 16:06:11;;;;;;;11.70;4.10;;;;;;;16.38;77.78;99115.10;218337;1256;140731;-69
2023/07/26 16:11:18;;;;;;;3.80;3.40;;;;;;;16.37;77.82;99116.56;218524;1259;140041;-71
2023/07/26 16:16:22;;;;;;;4.90;3.60;;;;;;;16.33;77.81;99113.77;218922;1256;140396;-71
2023/07/26 16:21:28;;;;;;;6.80;4.00;;;;;;;16.29;77.80;99110.95;218348;1259;139624;-70
2023/07/26 16:26:38;;;;;;;5.00;4.10;;;;;;;16.29;77.89;99111.39;218297;1256;139498;-73
2023/07/26 16:31:42;;;;;;;7.10;4.30;;;;;;;16.27;78.01;99112.65;217862;1259;139625;-69
2023/07/26 16:36:46;;;;;;;4.30;3.60;;;;;;;16.23;78.09;99114.73;217943;1257;139983;-72
2023/07/26 16:41:51;;;;;;;11.90;5.00;;;;;;;16.20;78.23;99115.32;218125;1259;139816;-69
2023/07/26 16:46:56;;;;;;;4.60;3.90;;;;;;;16.21;78.24;99114.73;219870;1256;140260;-66
2023/07/26 16:52:13;;;;;;;3.90;3.60;;;;;;;16.18;78.32;99125.18;219742;1255;140295;-66
2023/07/26 16:57:20;;;;;;;8.10;4.40;;;;;;;16.12;78.12;99127.09;218457;1256;139876;-65
2023/07/26 17:02:26;;;;;;;4.30;3.80;;;;;;;16.06;78.24;99126.45;219806;1258;139678;-66
2023/07/26 17:07:33;;;;;;;6.40;4.80;;;;;;;16.00;78.30;99132.67;218485;1256;140631;-65
2023/07/26 17:12:38;;;;;;;9.10;5.00;;;;;;;15.92;78.18;99133.25;220536;1256;142251;-64
2023/07/26 17:17:46;;;;;;;5.20;3.00;;;;;;;15.88;78.48;99137.99;220593;1256;141392;-64
2023/07/26 17:22:51;;;;;;;9.70;4.20;;;;;;;15.80;78.35;99141.44;220422;1255;140033;-65
2023/07/26 17:27:56;;;;;;;4.40;4.00;;;;;;;15.72;78.43;99144.29;220475;1255;141282;-65
2023/07/26 17:33:05;;;;;;;7.70;4.40;;;;;;;15.67;78.52;99148.69;218754;1257;140458;-63
2023/07/26 17:38:11;;;;;;;4.90;4.40;;;;;;;15.67;78.92;99150.14;217975;1255;141035;-70
2023/07/26 17:43:16;;;;;;;8.00;4.60;;;;;;;15.67;78.89;99159.98;219442;1256;140484;-65
2023/07/26 17:48:23;;;;;;;36.90;8.60;;;;;;;15.65;78.98;99165.85;217908;1257;140375;-65
2023/07/26 17:53:33;;;;;;;8.00;4.90;;;;;;;15.59;79.05;99170.36;218333;1259;140420;-63
2023/07/26 17:58:38;;;;;;;6.70;4.00;;;;;;;15.51;79.10;99175.56;218769;1256;139818;-65
2023/07/26 18:03:42;;;;;;;4.40;4.10;;;;;;;15.45;79.32;99179.20;218146;1256;141291;-65
2023/07/26 18:08:48;;;;;;;5.00;4.60;;;;;;;15.36;79.30;99178.08;218858;1256;140376;-63
2023/07/26 18:13:54;;;;;;;7.60;4.90;;;;;;;15.23;79.19;99175.18;218313;1257;141098;-63
2023/07/26 18:18:58;;;;;;;6.70;4.80;;;;;;;15.12;79.47;99174.05;218064;1257;140653;-64
2023/07/26 18:24:08;;;;;;;;;;;;;;;15.08;79.70;99175.15;218646;1255;140554;-63
2023/07/26 18:29:13;;;;;;;5.40;4.40;;;;;;;14.99;79.72;99177.14;218875;1257;126343;-64
2023/07/26 18:34:18;;;;;;;6.20;4.00;;;;;;;14.95;79.80;99176.80;218720;1256;141379;-67
2023/07/26 18:39:23;;;;;;;6.20;4.10;;;;;;;14.92;79.75;99182.13;218801;1256;140327;-69
2023/07/26 18:44:28;;;;;;;7.80;3.90;;;;;;;14.90;79.67;99192.44;218047;1257;139897;-67
2023/07/26 18:49:37;;;;;;;4.90;4.30;;;;;;;14.86;79.74;99198.41;218740;1255;140316;-65
2023/07/26 18:54:47;;;;;;;3.60;3.30;;;;;;;14.80;79.71;99200.25;217907;1257;140227;-66
2023/07/26 18:59:53;;;;;;;5.40;4.60;;;;;;;14.70;79.57;99201.74;220558;1256;140655;-67
2023/07/26 19:04:58;;;;;;;7.00;4.50;;;;;;;14.63;79.79;99206.02;218292;1256;140342;-66
2023/07/26 19:10:03;;;;;;;6.00;4.10;;;;;;;14.59;79.72;99216.98;220479;1256;140061;-62
2023/07/26 19:15:08;;;;;;;4.80;4.40;;;;;;;14.56;79.92;99224.77;218122;1259;140858;-69
2023/07/26 19:20:12;;;;;;;4.40;3.20;;;;;;;14.52;79.87;99230.45;220407;1256;140667;-65
2023/07/26 19:25:16;;;;;;;6.60;4.30;;;;;;;14.44;80.00;99228.21;219228;1256;140141;-64
2023/07/26 19:30:22;;;;;;;4.20;3.90;;;;;;;14.37;79.89;99225.17;218899;1256;139937;-65
2023/07/26 19:35:29;;;;;;;8.00;4.80;;;;;;;14.29;80.20;99227.27;218558;1257;140652;-65
2023/07/26 19:40:39;;;;;;;4.10;3.70;;;;;;;14.30;80.54;99228.17;217541;1256;139900;-66
2023/07/26 19:45:44;;;;;;;4.20;3.80;;;;;;;14.30;80.80;99233.27;219088;1256;141918;-64
2023/07/26 19:50:52;;;;;;;3.50;3.10;;;;;;;14.30;80.66;99241.52;218148;1257;139901;-64
2023/07/26 19:56:03;;;;;;;3.40;3.10;;;;;;;14.29;80.66;99242.07;220404;1255;141071;-64
2023/07/26 20:01:14;;;;;;;8.50;4.00;;;;;;;14.28;80.54;99243.36;218480;1259;140406;-65
2023/07/26 20:06:24;;;;;;;6.00;3.80;;;;;;;14.23;80.36;99239.71;219214;1256;140676;-66
2023/07/26 20:11:30;;;;;;;7.20;3.10;;;;;;;14.23;80.43;99237.40;217661;1257;139686;-69
2023/07/26 20:16:36;;;;;;;4.20;3.30;;;;;;;14.25;80.31;99236.13;218836;1257;139880;-64
2023/07/26 20:21:40;;;;;;;3.70;3.40;;;;;;;14.24;80.08;99240.52;218436;1256;141314;-70
2023/07/26 20:26:46;;;;;;;4.10;3.80;;;;;;;14.22;80.22;99240.57;217945;1259;139783;-68
2023/07/26 20:31:51;;;;;;;3.30;3.00;;;;;;;14.21;80.32;99241.91;217726;1259;140021;-68
2023/07/26 20:36:56;;;;;;;3.90;3.50;;;;;;;14.16;80.38;99236.60;218433;1258;142205;-67
2023/07/26 20:42:00;;;;;;;9.50;4.60;;;;;;;14.14;80.58;99236.33;219803;1254;140551;-64
2023/07/26 20:47:04;;;;;;;4.20;3.40;;;;;;;14.13;80.62;99241.11;218707;1254;139919;-65
2023/07/26 20:52:09;;;;;;;8.20;4.10;;;;;;;14.10;80.79;99243.69;218875;1256;140888;-67
2023/07/26 20:57:14;;;;;;;4.10;3.70;;;;;;;14.04;80.62;99250.52;217876;1256;139986;-69
2023/07/26 21:02:18;;;;;;;4.80;3.10;;;;;;;14.02;81.04;99246.50;220077;1257;140793;-68
2023/07/26 21:07:23;;;;;;;5.90;3.40;;;;;;;14.00;81.12;99247.52;218626;1255;140055;-66
2023/07/26 21:12:28;;;;;;;4.60;3.10;;;;;;;13.95;81.28;99243.77;220131;1257;140728;-65
2023/07/26 21:17:33;;;;;;;8.30;4.70;;;;;;;13.97;81.30;99242.11;220492;1255;140686;-65
2023/07/26 21:22:37;;;;;;;5.50;3.70;;;;;;;13.95;81.37;99250.73;220453;1259;139986;-65
2023/07/26 21:27:42;;;;;;;6.80;3.40;;;;;;;13.99;81.47;99277.95;220526;1257;141128;-68
2023/07/26 21:32:45;;;;;;;6.10;4.50;;;;;;;13.99;81.45;99283.10;220404;1254;140308;-68
2023/07/26 21:37:50;;;;;;;5.70;4.10;;;;;;;14.01;81.59;99281.88;220410;1257;140408;-66
2023/07/26 21:42:55;;;;;;;5.90;5.00;;;;;;;14.00;81.44;99284.82;218043;1257;141312;-66
2023/07/26 21:48:02;;;;;;;5.10;4.50;;;;;;;13.95;81.52;99292.25;218887;1257;139901;-66
2023/07/26 21:53:07;;;;;;;5.00;4.50;;;;;;;13.91;81.66;99296.05;219812;1255;140267;-66
2023/07/26 21:58:13;;;;;;;7.70;4.10;;;;;;;13.89;81.56;99296.75;219045;1256;140283;-65
2023/07/26 22:03:18;;;;;;;10.70;4.00;;;;;;;13.87;81.51;99299.32;218642;1257;140990;-64
2023/07/26 22:08:26;;;;;;;5.10;4.60;;;;;;;13.83;81.21;99296.90;218483;1257;142059;-64
2023/07/26 22:13:31;;;;;;;3.80;3.20;;;;;;;13.81;81.28;99296.95;217620;1257;140504;-64
2023/07/26 22:18:35;;;;;;;3.60;2.30;;;;;;;13.78;81.25;99291.59;217829;1258;140009;-64
2023/07/26 22:23:40;;;;;;;4.60;4.20;;;;;;;13.74;80.79;99295.88;218287;1259;139995;-64
2023/07/26 22:28:45;;;;;;;3.30;2.60;;;;;;;13.70;80.93;99291.98;217444;1257;141028;-64
2023/07/26 22:33:50;;;;;;;3.60;2.80;;;;;;;13.66;81.14;99282.54;218059;1257;140578;-66
2023/07/26 22:38:55;;;;;;;4.50;2.30;;;;;;;13.65;80.88;99272.95;218038;1256;141050;-67
2023/07/26 22:44:00;;;;;;;6.90;3.10;;;;;;;13.61;80.82;99271.59;218687;1256;140404;-66
2023/07/26 22:49:05;;;;;;;6.50;2.90;;;;;;;13.58;80.87;99281.17;218303;1258;140003;-66
2023/07/26 22:54:09;;;;;;;4.20;2.40;;;;;;;13.56;80.70;99289.80;218642;1259;141063;-65
2023/07/26 22:59:14;;;;;;;2.60;2.00;;;;;;;13.50;80.59;99293.68;218386;1257;140534;-65
2023/07/26 23:04:18;;;;;;;4.20;2.00;;;;;;;13.45;80.78;99295.39;218628;1258;140162;-64
2023/07/26 23:09:22;;;;;;;2.70;2.30;;;;;;;13.40;80.92;99300.75;219649;1254;140209;-65
2023/07/26 23:14:26;;;;;;;6.80;2.60;;;;;;;13.34;80.83;99299.27;220637;1258;140785;-65
2023/07/26 23:19:31;;;;;;;2.50;2.20;;;;;;;13.34;80.90;99297.94;220510;1256;139923;-67
2023/07/26 23:24:36;;;;;;;3.90;3.20;;;;;;;13.31;80.57;99300.13;220856;1254;140464;-66